Time;durP1;ratioP1;P1;durP2;ratioP2;P2;SDS_P1;SDS_P2;PMS_P1;PMS_P2;Temp;Humidity;BMP_temperature;BMP_pressure;BME280_temperature;BME280_humidity;BME280_pressure;Samples;Min_cycle;Max_cycle;Signal;HPM_P1;HPM_P2
2023/10/20 00:00:29;;;;;;;18.37;10.77;;;12.10;99.90;;;;;;4227303;27;20449;-59
2023/10/20 00:02:30;;;;;;;19.97;8.83;;;12.10;99.90;;;;;;4228604;28;20476;-61
2023/10/20 00:04:31;;;;;;;20.00;9.23;;;12.20;99.90;;;;;;4227636;27;20096;-60
2023/10/20 00:06:33;;;;;;;15.13;9.30;;;12.10;99.90;;;;;;4228235;28;20028;-59
2023/10/20 00:08:34;;;;;;;16.97;9.27;;;12.10;99.90;;;;;;4228365;27;20080;-59
2023/10/20 00:10:36;;;;;;;18.70;9.93;;;12.10;99.90;;;;;;4227997;28;20092;-59
2023/10/20 00:12:41;;;;;;;16.93;9.03;;;12.10;99.90;;;;;;4227995;27;20032;-59
2023/10/20 00:14:42;;;;;;;11.33;7.40;;;12.10;99.90;;;;;;4227858;28;20036;-60
2023/10/20 00:16:44;;;;;;;11.37;6.80;;;12.10;99.90;;;;;;4228022;28;20032;-59
2023/10/20 00:18:45;;;;;;;8.90;6.73;;;12.10;99.90;;;;;;4225317;28;20584;-59
2023/10/20 00:20:46;;;;;;;11.60;6.10;;;12.10;99.90;;;;;;4227787;28;20035;-60
2023/10/20 00:22:47;;;;;;;7.93;4.90;;;12.20;99.90;;;;;;4227127;28;20084;-59
2023/10/20 00:24:48;;;;;;;10.83;5.50;;;12.30;99.90;;;;;;4228175;28;20051;-60
2023/10/20 00:26:49;;;;;;;7.70;4.87;;;12.40;99.90;;;;;;4227201;28;20031;-60
2023/10/20 00:28:50;;;;;;;10.87;5.20;;;12.60;99.90;;;;;;4228027;28;20088;-60
2023/10/20 00:30:51;;;;;;;10.13;5.33;;;12.70;99.90;;;;;;4214241;28;20085;-60
2023/10/20 00:32:53;;;;;;;8.33;4.77;;;12.80;99.90;;;;;;4227964;28;20422;-56
2023/10/20 00:34:54;;;;;;;12.17;4.63;;;12.80;99.90;;;;;;4226477;28;20056;-59
2023/10/20 00:36:55;;;;;;;10.03;6.33;;;12.80;99.90;;;;;;4228012;27;20036;-60
2023/10/20 00:38:56;;;;;;;8.07;4.87;;;12.70;99.90;;;;;;4227412;28;20084;-59
2023/10/20 00:40:57;;;;;;;6.17;4.63;;;12.70;99.90;;;;;;4227715;28;20061;-60
2023/10/20 00:42:58;;;;;;;10.17;5.47;;;12.80;99.90;;;;;;4227459;28;20019;-60
2023/10/20 00:45:00;;;;;;;9.63;4.70;;;12.80;99.90;;;;;;4227120;28;20047;-61
2023/10/20 00:47:01;;;;;;;8.47;5.27;;;12.80;99.90;;;;;;4227730;27;20044;-59
2023/10/20 00:49:03;;;;;;;6.60;5.00;;;12.70;99.90;;;;;;4226890;28;20104;-59
2023/10/20 00:51:05;;;;;;;8.23;5.07;;;12.70;99.90;;;;;;4227780;28;20028;-59
2023/10/20 00:53:09;;;;;;;7.20;4.80;;;12.60;99.90;;;;;;4226775;28;20023;-60
2023/10/20 00:55:11;;;;;;;9.03;4.70;;;12.60;99.90;;;;;;4228225;27;20035;-60
2023/10/20 00:57:16;;;;;;;7.90;4.97;;;12.60;99.90;;;;;;4226650;28;20477;-59
2023/10/20 00:59:17;;;;;;;8.97;4.93;;;12.60;99.90;;;;;;4226692;28;20118;-60
2023/10/20 01:01:18;;;;;;;7.77;5.03;;;12.60;99.90;;;;;;4226223;28;20031;-59
2023/10/20 01:03:20;;;;;;;9.00;4.30;;;12.60;99.90;;;;;;4226558;28;20040;-60
2023/10/20 01:05:24;;;;;;;9.40;4.53;;;12.70;99.90;;;;;;4226546;28;20039;-59
2023/10/20 01:07:25;;;;;;;8.73;5.00;;;12.80;99.90;;;;;;4227410;28;20092;-59
2023/10/20 01:09:27;;;;;;;8.03;4.70;;;12.70;99.90;;;;;;4226073;28;20092;-59
2023/10/20 01:11:29;;;;;;;8.93;4.93;;;12.60;99.90;;;;;;4227402;28;20109;-60
2023/10/20 01:13:31;;;;;;;7.80;5.07;;;12.60;99.90;;;;;;4226539;27;20047;-59
2023/10/20 01:15:32;;;;;;;7.07;4.90;;;12.60;99.90;;;;;;4227349;28;20072;-60
2023/10/20 01:17:34;;;;;;;8.67;5.03;;;12.50;99.90;;;;;;4227401;28;20047;-59
2023/10/20 01:19:37;;;;;;;6.80;4.93;;;12.50;99.90;;;;;;4226539;28;20031;-60
2023/10/20 01:21:38;;;;;;;8.80;5.70;;;12.40;99.90;;;;;;4226864;28;20023;-59
2023/10/20 01:23:40;;;;;;;10.70;5.83;;;12.40;99.90;;;;;;4226675;28;20069;-60
2023/10/20 01:25:41;;;;;;;9.20;5.90;;;12.40;99.90;;;;;;4227090;28;20184;-59
2023/10/20 01:27:42;;;;;;;8.40;5.03;;;12.40;99.90;;;;;;4226780;28;20084;-59
2023/10/20 01:29:43;;;;;;;8.57;5.97;;;12.40;99.90;;;;;;4227685;28;20071;-59
2023/10/20 01:31:44;;;;;;;11.83;5.77;;;12.40;99.90;;;;;;4224975;28;20035;-60
2023/10/20 01:33:45;;;;;;;11.10;5.90;;;12.40;99.90;;;;;;4213863;28;20043;-60
2023/10/20 01:35:47;;;;;;;10.97;6.10;;;12.30;99.90;;;;;;4225813;28;20047;-59
2023/10/20 01:37:48;;;;;;;12.73;6.33;;;12.30;99.90;;;;;;4227921;28;20035;-60
2023/10/20 01:39:50;;;;;;;13.97;7.13;;;12.30;99.90;;;;;;4226533;28;20027;-60
2023/10/20 01:41:51;;;;;;;11.87;7.07;;;12.30;99.90;;;;;;4228037;28;20044;-59
2023/10/20 01:43:52;;;;;;;9.73;6.17;;;12.30;99.90;;;;;;4226386;28;20475;-59
2023/10/20 01:45:53;;;;;;;11.33;7.33;;;12.20;99.90;;;;;;4227240;28;20104;-59
2023/10/20 01:47:55;;;;;;;11.33;8.00;;;12.20;99.90;;;;;;4227256;28;20069;-59
2023/10/20 01:49:56;;;;;;;18.47;10.07;;;12.10;99.90;;;;;;4226944;28;20044;-60
2023/10/20 01:51:57;;;;;;;17.13;11.17;;;12.10;99.90;;;;;;4226972;28;20023;-61
2023/10/20 01:53:59;;;;;;;18.07;12.07;;;12.00;99.90;;;;;;4226759;28;20040;-60
2023/10/20 01:56:01;;;;;;;20.77;11.53;;;11.90;99.90;;;;;;4227342;28;20485;-60
2023/10/20 01:58:02;;;;;;;24.47;11.90;;;11.80;99.90;;;;;;4226558;28;20467;-59
2023/10/20 02:00:07;;;;;;;18.33;12.13;;;11.80;99.90;;;;;;4227346;28;20495;-60
2023/10/20 02:02:08;;;;;;;17.47;11.37;;;11.70;99.90;;;;;;4226384;28;20128;-60
2023/10/20 02:04:10;;;;;;;20.40;11.43;;;11.70;99.90;;;;;;4227381;28;20043;-58
2023/10/20 02:06:11;;;;;;;22.53;14.03;;;11.70;99.90;;;;;;4226153;28;20028;-59
2023/10/20 02:08:12;;;;;;;19.83;13.53;;;11.60;99.90;;;;;;4227523;28;20039;-60
2023/10/20 02:10:14;;;;;;;18.97;12.03;;;11.60;99.90;;;;;;4226808;28;20430;-60
2023/10/20 02:12:16;;;;;;;18.40;13.23;;;11.60;99.90;;;;;;4227440;28;20035;-60
2023/10/20 02:14:17;;;;;;;18.07;12.70;;;11.70;99.90;;;;;;4226411;28;20436;-59
2023/10/20 02:16:18;;;;;;;22.80;10.97;;;11.70;99.90;;;;;;4226814;28;20442;-60
2023/10/20 02:18:19;;;;;;;18.40;11.87;;;11.80;99.90;;;;;;4210599;28;20468;-59
2023/10/20 02:20:25;;;;;;;23.07;11.63;;;11.80;99.90;;;;;;4226218;28;20480;-60
2023/10/20 02:22:26;;;;;;;16.13;10.57;;;11.80;99.90;;;;;;4226399;28;20035;-59
2023/10/20 02:24:27;;;;;;;14.10;9.33;;;11.80;99.90;;;;;;4226489;27;20047;-59
2023/10/20 02:26:29;;;;;;;13.83;9.20;;;11.80;99.90;;;;;;4229997;28;20089;-60
2023/10/20 02:28:30;;;;;;;14.10;8.37;;;11.80;99.90;;;;;;4228860;28;20370;-59
2023/10/20 02:30:32;;;;;;;14.63;7.87;;;11.80;99.90;;;;;;4229768;28;20514;-60
2023/10/20 02:32:33;;;;;;;10.97;7.80;;;11.80;99.90;;;;;;4229210;28;20036;-60
2023/10/20 02:34:35;;;;;;;13.47;8.73;;;11.80;99.90;;;;;;4229776;28;20023;-59
2023/10/20 02:36:36;;;;;;;13.03;7.40;;;11.80;99.90;;;;;;4227547;28;20043;-59
2023/10/20 02:38:37;;;;;;;11.93;7.73;;;11.80;99.90;;;;;;4229781;27;20043;-60
2023/10/20 02:40:38;;;;;;;15.53;8.17;;;11.80;99.90;;;;;;4229041;28;20031;-59
2023/10/20 02:42:43;;;;;;;15.80;8.37;;;11.80;99.90;;;;;;4230084;27;20093;-59
2023/10/20 02:44:44;;;;;;;14.13;8.07;;;11.70;99.90;;;;;;4228317;28;20039;-60
2023/10/20 02:46:45;;;;;;;22.10;9.67;;;11.80;99.90;;;;;;4230146;28;20092;-59
2023/10/20 02:48:46;;;;;;;23.77;10.00;;;11.80;99.90;;;;;;4229196;28;20028;-60
2023/10/20 02:50:48;;;;;;;16.00;10.03;;;11.80;99.90;;;;;;4229232;28;20112;-60
2023/10/20 02:52:49;;;;;;;15.10;8.00;;;11.70;99.90;;;;;;4228562;28;20088;-59
2023/10/20 02:54:54;;;;;;;11.53;7.80;;;11.70;99.90;;;;;;4229154;27;20492;-60
2023/10/20 02:56:56;;;;;;;12.03;7.30;;;11.70;99.90;;;;;;4229379;28;20035;-60
2023/10/20 02:58:57;;;;;;;16.40;9.30;;;11.70;99.90;;;;;;4228754;28;20360;-59
2023/10/20 03:00:58;;;;;;;14.57;9.13;;;11.80;99.90;;;;;;4229659;28;20039;-60
2023/10/20 03:03:00;;;;;;;15.30;8.27;;;11.70;99.90;;;;;;4228669;27;20678;-59
2023/10/20 03:05:01;;;;;;;15.43;8.90;;;11.70;99.90;;;;;;4230050;27;20489;-59
2023/10/20 03:07:02;;;;;;;16.97;11.07;;;11.70;99.90;;;;;;4228308;27;20104;-59
2023/10/20 03:09:03;;;;;;;17.70;10.67;;;11.70;99.90;;;;;;4214749;28;20077;-59
2023/10/20 03:11:06;;;;;;;18.00;11.13;;;11.60;99.90;;;;;;4227919;28;20031;-59
2023/10/20 03:13:07;;;;;;;19.33;11.47;;;11.60;99.90;;;;;;4229125;28;20065;-59
2023/10/20 03:15:11;;;;;;;22.23;12.93;;;11.60;99.90;;;;;;4228018;28;20100;-59
2023/10/20 03:17:12;;;;;;;21.90;11.90;;;11.60;99.90;;;;;;4229223;28;20076;-53
2023/10/20 03:19:14;;;;;;;15.87;10.97;;;11.60;99.90;;;;;;4227758;28;20027;-59
2023/10/20 03:21:18;;;;;;;18.30;10.97;;;11.60;99.90;;;;;;4229235;28;20437;-58
2023/10/20 03:23:22;;;;;;;22.70;12.17;;;11.60;99.90;;;;;;4228386;27;20031;-59
2023/10/20 03:25:23;;;;;;;18.57;11.73;;;11.60;99.90;;;;;;4228611;28;20530;-59
2023/10/20 03:27:24;;;;;;;20.80;12.03;;;11.60;99.90;;;;;;4228600;28;20454;-59
2023/10/20 03:29:25;;;;;;;47.63;28.40;;;11.60;99.90;;;;;;4228442;28;20035;-59
2023/10/20 03:31:26;;;;;;;21.83;14.53;;;11.60;99.90;;;;;;4228846;28;20032;-58
2023/10/20 03:33:28;;;;;;;21.03;11.77;;;11.60;99.90;;;;;;4228317;28;20069;-59
2023/10/20 03:35:29;;;;;;;20.50;11.10;;;11.60;99.90;;;;;;4228931;28;20061;-59
2023/10/20 03:37:30;;;;;;;29.63;11.73;;;11.60;99.90;;;;;;4227999;28;20052;-60
2023/10/20 03:39:33;;;;;;;21.07;12.17;;;11.60;99.90;;;;;;4228807;28;20028;-60
2023/10/20 03:41:34;;;;;;;24.47;12.37;;;11.60;99.90;;;;;;4227751;28;20032;-59
2023/10/20 03:43:36;;;;;;;22.20;11.67;;;11.60;99.90;;;;;;4229123;28;20096;-60
2023/10/20 03:45:41;;;;;;;23.33;12.13;;;11.50;99.90;;;;;;4227644;28;20039;-60
2023/10/20 03:47:44;;;;;;;26.80;12.30;;;11.60;99.90;;;;;;4230030;27;20043;-60
2023/10/20 03:49:46;;;;;;;18.93;11.53;;;11.50;99.90;;;;;;4227615;28;20143;-59
2023/10/20 03:51:51;;;;;;;21.10;12.83;;;11.50;99.90;;;;;;4228550;28;20055;-59
2023/10/20 03:53:54;;;;;;;20.57;13.27;;;11.50;99.90;;;;;;4227285;28;20402;-58
2023/10/20 03:56:04;;;;;;;28.33;15.50;;;11.50;99.90;;;;;;4228649;28;20039;-60
2023/10/20 03:58:05;;;;;;;20.45;12.85;;;11.50;99.90;;;;;;4227596;28;20431;-60
2023/10/20 04:00:17;;;;;;;33.50;13.20;;;11.50;99.90;;;;;;4228231;28;20422;-60
2023/10/20 04:02:18;;;;;;;28.13;14.67;;;11.50;99.90;;;;;;4227816;27;20032;-60
2023/10/20 04:04:20;;;;;;;22.47;13.37;;;11.50;99.90;;;;;;4227610;27;20052;-58
2023/10/20 04:06:22;;;;;;;24.53;13.70;;;11.50;99.90;;;;;;4227104;28;20036;-59
2023/10/20 04:08:23;;;;;;;27.43;13.60;;;11.50;99.90;;;;;;4227158;28;20032;-60
2023/10/20 04:10:24;;;;;;;25.43;13.53;;;11.50;99.90;;;;;;4227905;28;20093;-60
2023/10/20 04:12:27;;;;;;;26.67;13.60;;;11.50;99.90;;;;;;4227018;28;20027;-60
2023/10/20 04:14:29;;;;;;;21.20;13.30;;;11.60;99.90;;;;;;4227073;28;20058;-61
2023/10/20 04:16:31;;;;;;;19.90;13.07;;;11.60;99.90;;;;;;4227457;27;20487;-62
2023/10/20 04:18:32;;;;;;;21.73;12.47;;;11.60;99.90;;;;;;4227727;28;20953;-62
2023/10/20 04:20:40;;;;;;;21.63;12.80;;;11.70;99.90;;;;;;4227402;28;20047;-61
2023/10/20 04:22:49;;;;;;;20.57;11.57;;;11.70;99.90;;;;;;4227818;28;20487;-60
2023/10/20 04:24:50;;;;;;;15.57;10.20;;;11.70;99.90;;;;;;4226490;27;20043;-60
2023/10/20 04:26:52;;;;;;;19.20;9.90;;;11.70;99.90;;;;;;4227518;28;20476;-61
2023/10/20 04:29:13;;;;;;;15.93;9.87;;;11.80;99.90;;;;;;4226389;28;20390;-61
2023/10/20 04:52:05;;;;;;;16.23;7.87;;;11.80;99.90;;;;;;4226928;28;20072;-61
2023/10/20 04:54:22;;;;;;;15.20;7.43;;;11.80;99.90;;;;;;4226923;27;20035;-58
2023/10/20 05:01:03;;;;;;;14.03;8.03;;;11.90;99.90;;;;;;4227070;28;20096;-61
2023/10/20 05:05:15;;;;;;;15.87;7.50;;;11.90;99.90;;;;;;4226793;28;20036;-62
2023/10/20 05:07:18;;;;;;;15.70;8.07;;;11.90;99.90;;;;;;4222770;27;20047;-60
2023/10/20 05:09:23;;;;;;;14.63;8.10;;;11.90;99.90;;;;;;4226403;28;20039;-62
2023/10/20 05:11:25;;;;;;;13.47;7.17;;;11.90;99.90;;;;;;4225557;28;20036;-60
2023/10/20 05:13:26;;;;;;;14.57;7.40;;;11.90;99.90;;;;;;4226072;28;20116;-61
2023/10/20 05:15:31;;;;;;;14.47;9.10;;;11.90;99.90;;;;;;4226487;28;20123;-60
2023/10/20 05:17:34;;;;;;;16.50;7.87;;;11.90;99.90;;;;;;4226832;28;20039;-61
2023/10/20 05:19:36;;;;;;;20.43;8.33;;;12.00;99.90;;;;;;4226481;28;20023;-62
2023/10/20 05:21:38;;;;;;;18.37;9.17;;;12.00;99.90;;;;;;4225632;28;20116;-61
2023/10/20 05:23:40;;;;;;;17.27;9.67;;;12.00;99.90;;;;;;4226957;28;20036;-60
2023/10/20 05:25:46;;;;;;;19.20;10.00;;;12.00;99.90;;;;;;4226233;28;20472;-61
2023/10/20 05:27:47;;;;;;;21.63;11.00;;;12.00;99.90;;;;;;4227340;28;20035;-61
2023/10/20 05:29:48;;;;;;;17.97;10.67;;;12.00;99.90;;;;;;4225678;28;20089;-62
2023/10/20 05:31:49;;;;;;;25.23;11.47;;;12.00;99.90;;;;;;4226788;28;20129;-61
2023/10/20 05:33:50;;;;;;;29.50;13.07;;;12.00;99.90;;;;;;4225979;28;20052;-60
2023/10/20 05:35:53;;;;;;;24.67;9.93;;;12.00;99.90;;;;;;4227394;27;20076;-60
2023/10/20 05:37:54;;;;;;;13.60;7.87;;;12.00;99.90;;;;;;4224235;28;20500;-61
2023/10/20 05:39:56;;;;;;;17.40;8.00;;;12.10;99.90;;;;;;4226768;28;20488;-61
2023/10/20 05:41:57;;;;;;;16.23;8.43;;;12.20;99.90;;;;;;4226444;28;20555;-60
2023/10/20 05:43:58;;;;;;;14.83;7.33;;;12.20;99.90;;;;;;4226016;28;20035;-60
2023/10/20 05:45:59;;;;;;;11.77;7.67;;;12.20;99.90;;;;;;4225772;28;20480;-60
2023/10/20 05:48:00;;;;;;;13.73;7.23;;;12.30;99.90;;;;;;4226893;28;20043;-61
2023/10/20 05:50:02;;;;;;;14.50;7.07;;;12.30;99.90;;;;;;4226351;28;20027;-60
2023/10/20 05:52:04;;;;;;;15.37;7.80;;;12.40;99.90;;;;;;4226220;28;20028;-61
2023/10/20 05:54:05;;;;;;;16.27;7.63;;;12.40;99.90;;;;;;4226771;28;20061;-60
2023/10/20 05:56:06;;;;;;;14.13;7.87;;;12.40;99.90;;;;;;4225677;28;20092;-57
2023/10/20 05:58:07;;;;;;;17.90;8.43;;;12.40;99.90;;;;;;4226968;28;20089;-60
2023/10/20 06:00:09;;;;;;;12.90;7.60;;;12.50;99.90;;;;;;4227576;28;20043;-61
2023/10/20 06:02:10;;;;;;;19.50;8.13;;;12.50;99.90;;;;;;4223858;28;20043;-60
2023/10/20 06:04:11;;;;;;;16.77;8.83;;;12.50;99.90;;;;;;4229046;27;20532;-60
2023/10/20 06:06:12;;;;;;;16.87;8.77;;;12.50;99.90;;;;;;4230204;28;20044;-61
2023/10/20 06:08:13;;;;;;;17.77;8.03;;;12.50;99.90;;;;;;4228575;28;20032;-60
2023/10/20 06:10:24;;;;;;;14.63;8.40;;;12.50;99.90;;;;;;4229999;28;20103;-60
2023/10/20 06:12:25;;;;;;;15.60;9.15;;;12.60;99.90;;;;;;4229463;27;20471;-59
2023/10/20 06:14:26;;;;;;;15.87;8.97;;;12.60;99.90;;;;;;4230408;28;20431;-60
2023/10/20 06:16:28;;;;;;;16.57;8.87;;;12.60;99.90;;;;;;4229161;28;20031;-60
2023/10/20 06:18:29;;;;;;;37.50;14.20;;;12.70;99.90;;;;;;4220529;28;20036;-61
2023/10/20 06:20:30;;;;;;;31.57;12.67;;;12.80;99.90;;;;;;4221387;28;20077;-60
2023/10/20 06:22:31;;;;;;;34.40;15.90;;;12.90;99.90;;;;;;4229418;28;20035;-57
2023/10/20 06:24:33;;;;;;;21.63;9.87;;;12.90;99.90;;;;;;4229357;27;20059;-60
2023/10/20 06:26:34;;;;;;;20.70;10.07;;;12.90;99.90;;;;;;4228608;28;20027;-59
2023/10/20 06:28:35;;;;;;;24.07;8.80;;;12.90;99.90;;;;;;4229562;28;20044;-58
2023/10/20 06:30:43;;;;;;;23.00;8.50;;;13.10;99.90;;;;;;4228570;28;20418;-60
2023/10/20 06:32:56;;;;;;;24.43;11.50;;;13.10;99.90;;;;;;4224768;27;20546;-60
2023/10/20 06:35:00;;;;;;;27.63;11.07;;;13.20;99.90;;;;;;4229128;28;20079;-60
2023/10/20 06:37:08;;;;;;;23.17;8.93;;;13.10;99.90;;;;;;4230042;27;20060;-60
2023/10/20 06:39:13;;;;;;;15.60;9.03;;;13.20;99.90;;;;;;4227870;28;20055;-59
2023/10/20 06:41:14;;;;;;;22.87;10.70;;;13.30;99.90;;;;;;4228557;28;20080;-59
2023/10/20 06:43:19;;;;;;;17.30;8.30;;;13.30;99.90;;;;;;4228380;27;20043;-59
2023/10/20 06:45:20;;;;;;;23.20;8.90;;;13.40;99.90;;;;;;4229070;27;20105;-58
2023/10/20 06:47:22;;;;;;;15.37;7.37;;;13.40;99.90;;;;;;4227384;28;20081;-61
2023/10/20 06:49:23;;;;;;;12.57;6.90;;;13.50;99.90;;;;;;4227733;28;20112;-59
2023/10/20 06:51:25;;;;;;;22.73;9.77;;;13.60;99.90;;;;;;4228361;28;20414;-60
2023/10/20 06:53:28;;;;;;;23.43;10.33;;;13.60;99.90;;;;;;4229390;28;20027;-60
2023/10/20 06:55:29;;;;;;;18.97;9.03;;;13.70;99.90;;;;;;4228346;28;20100;-60
2023/10/20 06:57:30;;;;;;;16.30;7.10;;;13.70;99.90;;;;;;4229104;28;20402;-60
2023/10/20 06:59:31;;;;;;;8.63;5.00;;;13.80;99.90;;;;;;4228697;28;20019;-60
2023/10/20 07:01:33;;;;;;;15.20;6.30;;;13.80;99.90;;;;;;4228986;28;20039;-60
2023/10/20 07:03:34;;;;;;;10.48;5.35;;;14.00;99.90;;;;;;4228749;28;20448;-59
2023/10/20 07:05:37;;;;;;;11.10;5.55;;;14.10;99.90;;;;;;4228005;28;20024;-59
2023/10/20 07:07:38;;;;;;;9.95;4.90;;;14.20;99.90;;;;;;4218766;28;20040;-60
2023/10/20 07:09:40;;;;;;;11.45;4.90;;;14.40;99.90;;;;;;4228077;28;20032;-60
2023/10/20 07:11:43;;;;;;;14.07;6.10;;;14.50;99.90;;;;;;4228559;27;20355;-61
2023/10/20 07:13:44;;;;;;;16.15;5.18;;;14.60;99.90;;;;;;4228603;28;20039;-60
2023/10/20 07:15:45;;;;;;;12.10;5.05;;;14.80;99.90;;;;;;4229163;28;20039;-60
2023/10/20 07:17:46;;;;;;;14.77;6.72;;;14.90;99.90;;;;;;4228483;28;20471;-60
2023/10/20 07:19:47;;;;;;;14.18;7.00;;;15.00;99.90;;;;;;4228867;28;20457;-58
2023/10/20 07:21:50;;;;;;;12.80;5.93;;;15.20;99.90;;;;;;4228064;28;20540;-59
2023/10/20 07:23:51;;;;;;;20.88;9.43;;;15.30;99.90;;;;;;4229001;28;20051;-57
2023/10/20 07:25:52;;;;;;;14.95;7.20;;;15.40;99.90;;;;;;4227967;28;20087;-59
2023/10/20 07:27:54;;;;;;;14.50;7.03;;;15.40;99.90;;;;;;4229240;28;20040;-58
2023/10/20 07:29:57;;;;;;;25.05;8.60;;;15.50;99.90;;;;;;4228322;28;20035;-57
2023/10/20 07:31:58;;;;;;;8.65;4.82;;;15.50;99.90;;;;;;4228993;27;20560;-60
2023/10/20 07:33:59;;;;;;;6.65;4.07;;;15.60;99.90;;;;;;4228501;27;20032;-59
2023/10/20 07:36:04;;;;;;;8.48;4.70;;;15.60;99.90;;;;;;4228658;28;20100;-60
2023/10/20 07:38:05;;;;;;;5.50;3.70;;;15.60;99.90;;;;;;4228115;28;20408;-58
2023/10/20 07:40:07;;;;;;;6.82;4.65;;;15.60;99.90;;;;;;4228226;27;20092;-59
2023/10/20 07:42:08;;;;;;;7.85;4.63;;;15.60;99.90;;;;;;4228684;27;20035;-59
2023/10/20 07:44:15;;;;;;;12.20;4.90;;;15.60;99.90;;;;;;4227700;28;20032;-61
2023/10/20 07:46:17;;;;;;;6.88;4.13;;;15.60;99.90;;;;;;4229308;28;20056;-59
2023/10/20 07:48:19;;;;;;;12.35;5.25;;;15.60;99.90;;;;;;4227861;28;20031;-59
2023/10/20 07:50:20;;;;;;;14.32;5.10;;;15.60;99.90;;;;;;4228984;28;20027;-59
2023/10/20 07:52:21;;;;;;;11.05;4.60;;;15.70;99.90;;;;;;4227696;28;20097;-59
2023/10/20 07:54:22;;;;;;;9.38;5.22;;;15.70;99.90;;;;;;4228231;28;20077;-62
2023/10/20 07:56:24;;;;;;;8.63;3.70;;;15.70;99.90;;;;;;4227307;28;20442;-60
2023/10/20 07:58:26;;;;;;;7.90;4.53;;;15.70;99.90;;;;;;4228022;28;20043;-59
2023/10/20 08:00:29;;;;;;;8.95;4.38;;;15.80;99.90;;;;;;4227331;28;20533;-59
2023/10/20 08:02:30;;;;;;;8.02;4.60;;;15.80;99.90;;;;;;4228015;28;20529;-59
2023/10/20 08:04:32;;;;;;;7.35;4.20;;;15.80;99.90;;;;;;4227070;28;20857;-59
2023/10/20 08:06:34;;;;;;;10.02;4.60;;;15.90;99.90;;;;;;4226653;28;20450;-59
2023/10/20 08:08:36;;;;;;;9.77;4.22;;;15.90;99.90;;;;;;4227771;28;20569;-59
2023/10/20 08:10:38;;;;;;;7.13;4.10;;;16.00;99.90;;;;;;4227656;28;20868;-59
2023/10/20 08:12:39;;;;;;;11.85;4.35;;;16.10;99.90;;;;;;4228292;27;20032;-60
2023/10/20 08:14:40;;;;;;;12.15;5.15;;;16.10;99.90;;;;;;4227454;27;20438;-59
2023/10/20 08:16:41;;;;;;;10.60;4.78;;;16.20;99.90;;;;;;4228514;28;20032;-60
2023/10/20 08:18:42;;;;;;;7.80;4.20;;;16.30;99.90;;;;;;4226648;28;20084;-57
2023/10/20 08:20:43;;;;;;;10.27;4.35;;;16.40;99.90;;;;;;4228313;28;20446;-59
2023/10/20 08:22:45;;;;;;;8.55;3.95;;;16.40;99.90;;;;;;4227041;28;20039;-59
2023/10/20 08:24:46;;;;;;;6.85;4.05;;;16.40;99.90;;;;;;4227827;28;20040;-59
2023/10/20 08:26:48;;;;;;;9.32;4.40;;;16.50;99.90;;;;;;4226278;28;20525;-58
2023/10/20 08:28:50;;;;;;;11.43;4.50;;;16.50;99.90;;;;;;4210892;28;20097;-60
2023/10/20 08:30:51;;;;;;;9.50;5.07;;;16.40;99.90;;;;;;4209975;28;20040;-59
2023/10/20 08:32:53;;;;;;;9.63;4.63;;;16.50;99.90;;;;;;4220569;28;20549;-59
2023/10/20 08:34:54;;;;;;;11.15;4.72;;;16.50;99.90;;;;;;4225295;28;20862;-57
2023/10/20 08:36:55;;;;;;;7.22;4.47;;;16.60;99.90;;;;;;4227349;28;20027;-55
2023/10/20 08:39:01;;;;;;;10.77;4.50;;;16.60;99.90;;;;;;4226693;28;20101;-56
2023/10/20 08:41:08;;;;;;;11.98;6.22;;;16.60;99.90;;;;;;4227417;27;20055;-58
2023/10/20 08:43:09;;;;;;;8.05;4.57;;;16.70;99.90;;;;;;4226213;28;20047;-57
2023/10/20 08:45:14;;;;;;;11.90;5.15;;;16.70;99.90;;;;;;4226421;28;20070;-59
2023/10/20 08:47:17;;;;;;;9.68;4.53;;;16.70;99.90;;;;;;4227290;28;20137;-59
2023/10/20 08:49:20;;;;;;;8.02;4.03;;;16.70;99.90;;;;;;4226861;27;20077;-58
2023/10/20 08:51:22;;;;;;;8.38;4.72;;;16.80;99.90;;;;;;4227539;28;20069;-60
2023/10/20 08:53:26;;;;;;;11.45;4.10;;;16.80;99.90;;;;;;4226520;28;20035;-60
2023/10/20 08:55:27;;;;;;;10.23;4.32;;;16.80;99.90;;;;;;4227865;27;20061;-58
2023/10/20 08:57:29;;;;;;;11.77;4.72;;;16.80;99.90;;;;;;4226699;28;20811;-59
2023/10/20 08:59:31;;;;;;;7.28;4.38;;;16.90;99.90;;;;;;4227624;28;20039;-59
2023/10/20 09:01:33;;;;;;;9.95;4.45;;;16.90;99.90;;;;;;4226853;28;20088;-59
2023/10/20 09:03:41;;;;;;;27.95;6.65;;;16.90;99.90;;;;;;4227921;28;20135;-59
2023/10/20 09:05:42;;;;;;;9.48;4.65;;;16.90;99.90;;;;;;4226475;28;20035;-59
2023/10/20 09:07:51;;;;;;;10.40;4.53;;;16.90;99.90;;;;;;4227548;28;20081;-59
2023/10/20 09:09:53;;;;;;;8.85;4.38;;;17.00;99.90;;;;;;4226704;27;20100;-60
2023/10/20 09:11:54;;;;;;;7.78;4.45;;;17.00;99.90;;;;;;4227927;28;20051;-60
2023/10/20 09:13:58;;;;;;;9.45;5.32;;;17.00;99.90;;;;;;4226283;28;20092;-58
2023/10/20 09:16:00;;;;;;;10.18;4.75;;;17.10;99.90;;;;;;4227250;28;20157;-59
2023/10/20 09:18:01;;;;;;;10.82;4.80;;;17.00;99.90;;;;;;4226884;28;20040;-59
2023/10/20 09:20:12;;;;;;;9.20;5.00;;;17.00;99.90;;;;;;4227039;28;20028;-57
2023/10/20 09:22:13;;;;;;;18.27;5.95;;;17.10;99.90;;;;;;4226608;28;20023;-59
2023/10/20 09:24:14;;;;;;;13.40;5.68;;;17.10;99.90;;;;;;4226433;28;20048;-60
2023/10/20 09:26:16;;;;;;;13.02;5.53;;;17.10;99.90;;;;;;4226972;28;20028;-59
2023/10/20 09:28:18;;;;;;;13.45;6.28;;;17.10;99.90;;;;;;4226337;28;20047;-59
2023/10/20 09:30:19;;;;;;;14.07;5.63;;;17.10;99.90;;;;;;4227490;28;20043;-60
2023/10/20 09:32:20;;;;;;;8.63;4.90;;;17.10;99.90;;;;;;4226464;28;20088;-58
2023/10/20 09:34:21;;;;;;;12.98;5.60;;;17.20;99.90;;;;;;4227126;28;20028;-59
2023/10/20 09:36:23;;;;;;;10.30;5.07;;;17.20;99.90;;;;;;4226384;28;20035;-60
2023/10/20 09:38:26;;;;;;;9.27;4.47;;;17.30;99.90;;;;;;4227199;28;20048;-59
2023/10/20 09:40:27;;;;;;;6.82;4.80;;;17.40;99.90;;;;;;4226037;28;20023;-59
2023/10/20 09:42:30;;;;;;;11.57;4.88;;;17.50;99.90;;;;;;4227474;28;20024;-59
2023/10/20 09:44:40;;;;;;;7.35;4.15;;;17.50;99.90;;;;;;4226475;28;20039;-56
2023/10/20 09:46:53;;;;;;;;;;;17.60;99.90;;;;;;4228125;28;20035;-61
2023/10/20 09:48:59;;;;;;;9.73;4.80;;;17.70;99.90;;;;;;4224958;28;20352;-59
2023/10/20 09:51:00;;;;;;;8.77;4.20;;;17.90;99.90;;;;;;4227473;28;20020;-59
2023/10/20 09:53:02;;;;;;;9.00;4.38;;;18.00;99.90;;;;;;4226380;28;20047;-60
2023/10/20 09:55:04;;;;;;;9.95;4.63;;;18.10;99.90;;;;;;4226175;28;20043;-59
2023/10/20 09:57:06;;;;;;;13.48;4.55;;;18.20;99.90;;;;;;4226345;28;21135;-59
2023/10/20 09:59:08;;;;;;;9.75;4.20;;;18.30;99.90;;;;;;4227095;28;20092;-58
2023/10/20 10:01:14;;;;;;;9.40;4.05;;;18.40;99.90;;;;;;4226113;28;20065;-58
2023/10/20 10:03:26;;;;;;;10.93;4.32;;;18.50;99.90;;;;;;4226559;28;20517;-59
2023/10/20 10:05:29;;;;;;;9.20;4.88;;;18.70;99.90;;;;;;4226260;28;20031;-58
2023/10/20 10:07:34;;;;;;;10.70;4.38;;;18.70;99.90;;;;;;4226945;28;20529;-59
2023/10/20 10:09:49;;;;;;;12.55;4.20;;;18.80;99.90;;;;;;4226796;28;20442;-59
2023/10/20 10:11:54;;;;;;;12.23;3.88;;;18.90;99.90;;;;;;4227032;28;20024;-59
2023/10/20 10:14:01;;;;;;;11.48;4.47;;;18.90;99.90;;;;;;4226669;28;20460;-59
2023/10/20 10:16:13;;;;;;;10.15;4.53;;;19.00;99.90;;;;;;4226154;28;20077;-59
2023/10/20 10:18:17;;;;;;;10.35;4.88;;;19.10;99.90;;;;;;4227064;28;20088;-59
2023/10/20 10:20:28;;;;;;;17.75;5.40;;;19.20;99.90;;;;;;4226217;28;20528;-59
2023/10/20 10:22:30;;;;;;;12.20;4.68;;;19.30;99.90;;;;;;4226881;28;20036;-59
2023/10/20 10:24:36;;;;;;;10.65;4.72;;;19.40;99.90;;;;;;4225691;28;20048;-60
2023/10/20 10:27:06;;;;;;;10.68;4.60;;;19.50;99.90;;;;;;4226884;28;20092;-59
2023/10/20 10:29:07;;;;;;;13.73;5.18;;;19.60;99.90;;;;;;4225644;28;20093;-58
2023/10/20 10:31:09;;;;;;;10.20;4.82;;;19.80;99.90;;;;;;4226934;28;20031;-59
2023/10/20 10:33:12;;;;;;;10.95;4.68;;;19.90;99.90;;;;;;4226005;28;20093;-59
2023/10/20 10:35:17;;;;;;;9.25;4.20;;;19.90;99.90;;;;;;4227004;28;20028;-59
2023/10/20 10:37:37;;;;;;;17.30;5.05;;;20.10;99.90;;;;;;4225958;28;20043;-58
2023/10/20 10:39:38;;;;;;;14.15;4.32;;;20.10;99.90;;;;;;4226915;28;20109;-60
2023/10/20 10:41:39;;;;;;;12.77;4.05;;;20.20;99.90;;;;;;4225938;28;20039;-60
2023/10/20 10:43:40;;;;;;;13.45;4.45;;;20.30;99.90;;;;;;4226874;28;20092;-59
2023/10/20 10:45:42;;;;;;;10.90;4.03;;;20.30;99.90;;;;;;4225879;28;20028;-60
2023/10/20 10:47:44;;;;;;;11.13;4.57;;;20.30;99.90;;;;;;4229793;28;20460;-61
2023/10/20 10:49:47;;;;;;;11.75;3.53;;;20.40;99.90;;;;;;4228707;28;20031;-59
2023/10/20 10:51:48;;;;;;;9.93;3.45;;;20.40;99.90;;;;;;4229802;28;20048;-59
2023/10/20 10:53:49;;;;;;;9.98;4.20;;;20.40;99.90;;;;;;4228148;28;20015;-60
2023/10/20 10:55:50;;;;;;;14.27;3.75;;;20.50;99.90;;;;;;4229610;28;20438;-59
2023/10/20 10:57:52;;;;;;;9.05;3.70;;;20.50;99.90;;;;;;4228153;28;20096;-59